sensor_id;sensor_type;location;lat;lon;timestamp;P1;durP1;ratioP1;P2;durP2;ratioP2
58338;SDS011;48278;52.704;6.536;2022-09-14T00:01:15;17.30;;;4.97;;
58338;SDS011;48278;52.704;6.536;2022-09-14T00:03:43;15.98;;;4.65;;
58338;SDS011;48278;52.704;6.536;2022-09-14T00:06:11;13.60;;;4.30;;
58338;SDS011;48278;52.704;6.536;2022-09-14T00:08:38;28.20;;;5.15;;
58338;SDS011;48278;52.704;6.536;2022-09-14T00:11:08;16.15;;;4.75;;
58338;SDS011;48278;52.704;6.536;2022-09-14T00:13:36;15.75;;;5.00;;
58338;SDS011;48278;52.704;6.536;2022-09-14T00:16:07;17.00;;;4.32;;
58338;SDS011;48278;52.704;6.536;2022-09-14T00:18:38;15.50;;;4.88;;
58338;SDS011;48278;52.704;6.536;2022-09-14T00:21:05;15.27;;;5.10;;
58338;SDS011;48278;52.704;6.536;2022-09-14T00:23:35;15.85;;;4.93;;
58338;SDS011;48278;52.704;6.536;2022-09-14T00:26:07;13.00;;;5.07;;
58338;SDS011;48278;52.704;6.536;2022-09-14T00:28:38;15.38;;;4.78;;
58338;SDS011;48278;52.704;6.536;2022-09-14T00:31:06;16.15;;;5.03;;
58338;SDS011;48278;52.704;6.536;2022-09-14T00:33:32;19.08;;;4.93;;
58338;SDS011;48278;52.704;6.536;2022-09-14T00:38:37;18.88;;;5.10;;
58338;SDS011;48278;52.704;6.536;2022-09-14T00:41:04;16.33;;;4.95;;
58338;SDS011;48278;52.704;6.536;2022-09-14T00:43:32;15.63;;;5.57;;
58338;SDS011;48278;52.704;6.536;2022-09-14T00:46:14;17.25;;;5.25;;
58338;SDS011;48278;52.704;6.536;2022-09-14T00:48:40;18.58;;;4.97;;
58338;SDS011;48278;52.704;6.536;2022-09-14T00:51:06;15.98;;;5.22;;
58338;SDS011;48278;52.704;6.536;2022-09-14T00:53:32;18.20;;;6.00;;
58338;SDS011;48278;52.704;6.536;2022-09-14T00:55:57;16.63;;;5.55;;
58338;SDS011;48278;52.704;6.536;2022-09-14T00:58:23;17.85;;;5.40;;
58338;SDS011;48278;52.704;6.536;2022-09-14T01:00:49;17.20;;;5.20;;
58338;SDS011;48278;52.704;6.536;2022-09-14T01:03:14;15.32;;;5.80;;
58338;SDS011;48278;52.704;6.536;2022-09-14T01:08:15;14.40;;;5.30;;
58338;SDS011;48278;52.704;6.536;2022-09-14T01:11:07;11.02;;;4.82;;
58338;SDS011;48278;52.704;6.536;2022-09-14T01:19:25;14.20;;;5.03;;
58338;SDS011;48278;52.704;6.536;2022-09-14T01:21:55;12.65;;;4.63;;
58338;SDS011;48278;52.704;6.536;2022-09-14T01:24:53;11.20;;;4.85;;
58338;SDS011;48278;52.704;6.536;2022-09-14T01:27:28;11.50;;;4.70;;
58338;SDS011;48278;52.704;6.536;2022-09-14T01:30:08;18.67;;;4.93;;
58338;SDS011;48278;52.704;6.536;2022-09-14T01:38:02;15.00;;;4.65;;
58338;SDS011;48278;52.704;6.536;2022-09-14T01:40:38;12.02;;;4.53;;
58338;SDS011;48278;52.704;6.536;2022-09-14T01:43:19;16.13;;;4.50;;
58338;SDS011;48278;52.704;6.536;2022-09-14T01:45:50;13.90;;;5.15;;
58338;SDS011;48278;52.704;6.536;2022-09-14T01:48:21;17.55;;;5.00;;
58338;SDS011;48278;52.704;6.536;2022-09-14T01:50:55;14.25;;;4.95;;
58338;SDS011;48278;52.704;6.536;2022-09-14T02:01:36;17.25;;;6.00;;
58338;SDS011;48278;52.704;6.536;2022-09-14T02:04:06;17.08;;;5.47;;
58338;SDS011;48278;52.704;6.536;2022-09-14T02:09:05;16.20;;;5.80;;
58338;SDS011;48278;52.704;6.536;2022-09-14T02:11:33;16.13;;;5.50;;
58338;SDS011;48278;52.704;6.536;2022-09-14T02:13:59;16.65;;;5.82;;
58338;SDS011;48278;52.704;6.536;2022-09-14T02:16:25;19.42;;;5.75;;
58338;SDS011;48278;52.704;6.536;2022-09-14T02:18:51;20.92;;;5.70;;
58338;SDS011;48278;52.704;6.536;2022-09-14T02:21:18;15.43;;;5.13;;
58338;SDS011;48278;52.704;6.536;2022-09-14T02:23:49;14.55;;;5.68;;
58338;SDS011;48278;52.704;6.536;2022-09-14T02:26:15;14.75;;;5.15;;
58338;SDS011;48278;52.704;6.536;2022-09-14T02:28:42;17.38;;;5.20;;
58338;SDS011;48278;52.704;6.536;2022-09-14T02:31:16;17.40;;;5.53;;
58338;SDS011;48278;52.704;6.536;2022-09-14T02:33:54;16.73;;;5.43;;
58338;SDS011;48278;52.704;6.536;2022-09-14T02:44:21;13.85;;;5.57;;
58338;SDS011;48278;52.704;6.536;2022-09-14T02:47:01;16.52;;;6.13;;
58338;SDS011;48278;52.704;6.536;2022-09-14T02:55:23;22.42;;;6.10;;
58338;SDS011;48278;52.704;6.536;2022-09-14T02:58:12;18.27;;;5.63;;
58338;SDS011;48278;52.704;6.536;2022-09-14T03:00:43;15.93;;;5.35;;
58338;SDS011;48278;52.704;6.536;2022-09-14T03:03:12;18.35;;;5.05;;
58338;SDS011;48278;52.704;6.536;2022-09-14T03:05:42;15.00;;;4.85;;
58338;SDS011;48278;52.704;6.536;2022-09-14T03:08:09;15.30;;;5.00;;
58338;SDS011;48278;52.704;6.536;2022-09-14T03:10:36;18.48;;;5.30;;
58338;SDS011;48278;52.704;6.536;2022-09-14T03:13:02;16.60;;;5.15;;
58338;SDS011;48278;52.704;6.536;2022-09-14T03:15:28;17.13;;;6.05;;
58338;SDS011;48278;52.704;6.536;2022-09-14T03:17:55;12.32;;;4.90;;
58338;SDS011;48278;52.704;6.536;2022-09-14T03:20:25;20.05;;;5.38;;
58338;SDS011;48278;52.704;6.536;2022-09-14T03:22:52;15.95;;;5.65;;
58338;SDS011;48278;52.704;6.536;2022-09-14T03:25:18;13.43;;;5.53;;
58338;SDS011;48278;52.704;6.536;2022-09-14T03:27:48;17.23;;;5.35;;
58338;SDS011;48278;52.704;6.536;2022-09-14T03:30:15;12.02;;;5.05;;
58338;SDS011;48278;52.704;6.536;2022-09-14T03:32:41;14.27;;;5.22;;
58338;SDS011;48278;52.704;6.536;2022-09-14T03:35:10;19.92;;;5.88;;
58338;SDS011;48278;52.704;6.536;2022-09-14T03:37:36;19.95;;;5.80;;
58338;SDS011;48278;52.704;6.536;2022-09-14T03:40:03;15.80;;;5.75;;
58338;SDS011;48278;52.704;6.536;2022-09-14T03:42:30;26.92;;;6.03;;
58338;SDS011;48278;52.704;6.536;2022-09-14T03:44:55;19.73;;;7.07;;
58338;SDS011;48278;52.704;6.536;2022-09-14T03:47:22;17.38;;;7.13;;
58338;SDS011;48278;52.704;6.536;2022-09-14T03:49:47;17.98;;;6.38;;
58338;SDS011;48278;52.704;6.536;2022-09-14T03:52:13;20.70;;;6.93;;
58338;SDS011;48278;52.704;6.536;2022-09-14T03:54:39;25.58;;;7.53;;
58338;SDS011;48278;52.704;6.536;2022-09-14T03:57:05;20.75;;;6.80;;
58338;SDS011;48278;52.704;6.536;2022-09-14T03:59:31;25.25;;;7.22;;
58338;SDS011;48278;52.704;6.536;2022-09-14T04:04:24;16.40;;;6.13;;
58338;SDS011;48278;52.704;6.536;2022-09-14T04:06:50;18.08;;;6.82;;
58338;SDS011;48278;52.704;6.536;2022-09-14T04:09:16;20.85;;;6.72;;
58338;SDS011;48278;52.704;6.536;2022-09-14T04:11:43;23.88;;;6.78;;
58338;SDS011;48278;52.704;6.536;2022-09-14T04:14:09;25.88;;;6.80;;
58338;SDS011;48278;52.704;6.536;2022-09-14T04:16:37;17.05;;;5.75;;
58338;SDS011;48278;52.704;6.536;2022-09-14T04:19:03;17.77;;;6.40;;
58338;SDS011;48278;52.704;6.536;2022-09-14T04:21:29;21.95;;;6.25;;
58338;SDS011;48278;52.704;6.536;2022-09-14T04:23:55;21.10;;;5.43;;
58338;SDS011;48278;52.704;6.536;2022-09-14T04:26:22;14.68;;;5.95;;
58338;SDS011;48278;52.704;6.536;2022-09-14T04:28:49;14.73;;;5.60;;
58338;SDS011;48278;52.704;6.536;2022-09-14T04:31:15;15.98;;;5.45;;
58338;SDS011;48278;52.704;6.536;2022-09-14T04:33:41;19.17;;;6.38;;
58338;SDS011;48278;52.704;6.536;2022-09-14T04:36:11;13.43;;;5.38;;
58338;SDS011;48278;52.704;6.536;2022-09-14T04:38:39;18.80;;;5.70;;
58338;SDS011;48278;52.704;6.536;2022-09-14T04:41:10;18.02;;;5.82;;
58338;SDS011;48278;52.704;6.536;2022-09-14T04:43:38;20.45;;;5.82;;
58338;SDS011;48278;52.704;6.536;2022-09-14T04:46:05;28.30;;;5.75;;
58338;SDS011;48278;52.704;6.536;2022-09-14T04:48:57;18.63;;;6.05;;
58338;SDS011;48278;52.704;6.536;2022-09-14T04:51:24;15.35;;;5.45;;
58338;SDS011;48278;52.704;6.536;2022-09-14T04:53:53;18.05;;;5.63;;
58338;SDS011;48278;52.704;6.536;2022-09-14T04:56:20;18.90;;;5.35;;
58338;SDS011;48278;52.704;6.536;2022-09-14T04:58:48;21.20;;;5.53;;
58338;SDS011;48278;52.704;6.536;2022-09-14T05:01:17;18.65;;;5.80;;
58338;SDS011;48278;52.704;6.536;2022-09-14T05:03:44;16.33;;;6.45;;
58338;SDS011;48278;52.704;6.536;2022-09-14T05:06:11;19.13;;;5.32;;
58338;SDS011;48278;52.704;6.536;2022-09-14T05:08:37;14.77;;;5.35;;
58338;SDS011;48278;52.704;6.536;2022-09-14T05:11:04;17.45;;;5.35;;
58338;SDS011;48278;52.704;6.536;2022-09-14T05:13:31;16.67;;;6.05;;
58338;SDS011;48278;52.704;6.536;2022-09-14T05:16:32;15.82;;;5.78;;
58338;SDS011;48278;52.704;6.536;2022-09-14T05:18:53;18.27;;;5.93;;
58338;SDS011;48278;52.704;6.536;2022-09-14T05:21:20;17.65;;;5.32;;
58338;SDS011;48278;52.704;6.536;2022-09-14T05:26:17;16.48;;;5.40;;
58338;SDS011;48278;52.704;6.536;2022-09-14T05:28:47;17.20;;;4.53;;
58338;SDS011;48278;52.704;6.536;2022-09-14T05:31:15;20.75;;;5.88;;
58338;SDS011;48278;52.704;6.536;2022-09-14T05:33:41;20.75;;;5.32;;
58338;SDS011;48278;52.704;6.536;2022-09-14T05:36:07;19.63;;;5.40;;
58338;SDS011;48278;52.704;6.536;2022-09-14T05:41:00;17.17;;;5.15;;
58338;SDS011;48278;52.704;6.536;2022-09-14T05:43:26;17.83;;;4.65;;
58338;SDS011;48278;52.704;6.536;2022-09-14T05:45:53;14.75;;;5.28;;
58338;SDS011;48278;52.704;6.536;2022-09-14T05:48:19;14.25;;;4.95;;
58338;SDS011;48278;52.704;6.536;2022-09-14T05:50:45;14.80;;;4.73;;
58338;SDS011;48278;52.704;6.536;2022-09-14T05:53:11;14.20;;;5.03;;
58338;SDS011;48278;52.704;6.536;2022-09-14T05:55:37;16.88;;;6.10;;
58338;SDS011;48278;52.704;6.536;2022-09-14T05:58:02;17.33;;;5.40;;
58338;SDS011;48278;52.704;6.536;2022-09-14T06:00:30;20.27;;;5.95;;
58338;SDS011;48278;52.704;6.536;2022-09-14T06:02:55;18.60;;;5.78;;
58338;SDS011;48278;52.704;6.536;2022-09-14T06:05:21;15.75;;;5.30;;
58338;SDS011;48278;52.704;6.536;2022-09-14T06:07:50;21.63;;;5.78;;
58338;SDS011;48278;52.704;6.536;2022-09-14T06:10:17;17.73;;;6.30;;
58338;SDS011;48278;52.704;6.536;2022-09-14T06:12:43;14.10;;;5.65;;
58338;SDS011;48278;52.704;6.536;2022-09-14T06:15:09;17.98;;;6.78;;
58338;SDS011;48278;52.704;6.536;2022-09-14T06:17:35;15.68;;;5.55;;
58338;SDS011;48278;52.704;6.536;2022-09-14T06:20:02;21.60;;;6.07;;
58338;SDS011;48278;52.704;6.536;2022-09-14T06:22:29;14.43;;;6.00;;
58338;SDS011;48278;52.704;6.536;2022-09-14T06:27:20;18.23;;;5.60;;
58338;SDS011;48278;52.704;6.536;2022-09-14T06:29:46;19.15;;;5.85;;
58338;SDS011;48278;52.704;6.536;2022-09-14T06:32:16;18.83;;;6.00;;
58338;SDS011;48278;52.704;6.536;2022-09-14T06:34:43;13.50;;;5.53;;
58338;SDS011;48278;52.704;6.536;2022-09-14T06:37:09;14.53;;;5.27;;
58338;SDS011;48278;52.704;6.536;2022-09-14T06:39:35;14.48;;;5.72;;
58338;SDS011;48278;52.704;6.536;2022-09-14T06:42:00;18.90;;;6.47;;
58338;SDS011;48278;52.704;6.536;2022-09-14T06:44:26;14.73;;;6.13;;
58338;SDS011;48278;52.704;6.536;2022-09-14T06:46:52;19.27;;;6.85;;
58338;SDS011;48278;52.704;6.536;2022-09-14T06:49:17;18.73;;;6.10;;
58338;SDS011;48278;52.704;6.536;2022-09-14T06:51:47;16.52;;;5.75;;
58338;SDS011;48278;52.704;6.536;2022-09-14T06:54:15;25.20;;;6.00;;
58338;SDS011;48278;52.704;6.536;2022-09-14T06:56:42;18.65;;;5.88;;
58338;SDS011;48278;52.704;6.536;2022-09-14T06:59:13;16.73;;;6.00;;
58338;SDS011;48278;52.704;6.536;2022-09-14T07:01:40;20.80;;;6.32;;
58338;SDS011;48278;52.704;6.536;2022-09-14T07:04:06;20.42;;;6.30;;
58338;SDS011;48278;52.704;6.536;2022-09-14T07:06:37;16.35;;;6.15;;
58338;SDS011;48278;52.704;6.536;2022-09-14T07:09:14;18.05;;;5.97;;
58338;SDS011;48278;52.704;6.536;2022-09-14T07:11:41;13.73;;;6.18;;
58338;SDS011;48278;52.704;6.536;2022-09-14T07:14:08;16.50;;;6.18;;
58338;SDS011;48278;52.704;6.536;2022-09-14T07:16:35;17.50;;;6.28;;
58338;SDS011;48278;52.704;6.536;2022-09-14T07:19:03;18.15;;;6.60;;
58338;SDS011;48278;52.704;6.536;2022-09-14T07:21:31;19.08;;;7.22;;
58338;SDS011;48278;52.704;6.536;2022-09-14T07:23:58;16.90;;;6.82;;
58338;SDS011;48278;52.704;6.536;2022-09-14T07:26:25;14.40;;;6.55;;
58338;SDS011;48278;52.704;6.536;2022-09-14T07:28:54;16.50;;;6.75;;
58338;SDS011;48278;52.704;6.536;2022-09-14T07:31:23;15.13;;;7.57;;
58338;SDS011;48278;52.704;6.536;2022-09-14T07:33:52;21.08;;;7.45;;
58338;SDS011;48278;52.704;6.536;2022-09-14T07:36:22;27.33;;;7.90;;
58338;SDS011;48278;52.704;6.536;2022-09-14T07:38:49;28.70;;;7.85;;
58338;SDS011;48278;52.704;6.536;2022-09-14T07:41:15;21.40;;;7.13;;
58338;SDS011;48278;52.704;6.536;2022-09-14T07:43:40;21.98;;;7.05;;
58338;SDS011;48278;52.704;6.536;2022-09-14T07:46:06;20.50;;;7.03;;
58338;SDS011;48278;52.704;6.536;2022-09-14T07:48:33;22.17;;;7.57;;
58338;SDS011;48278;52.704;6.536;2022-09-14T07:51:00;22.73;;;7.65;;
58338;SDS011;48278;52.704;6.536;2022-09-14T07:53:37;20.35;;;6.93;;
58338;SDS011;48278;52.704;6.536;2022-09-14T07:56:06;23.60;;;7.57;;
58338;SDS011;48278;52.704;6.536;2022-09-14T07:58:33;17.45;;;7.35;;
58338;SDS011;48278;52.704;6.536;2022-09-14T08:01:00;23.67;;;7.40;;
58338;SDS011;48278;52.704;6.536;2022-09-14T08:03:31;19.10;;;6.00;;
58338;SDS011;48278;52.704;6.536;2022-09-14T08:05:58;15.95;;;5.90;;
58338;SDS011;48278;52.704;6.536;2022-09-14T08:08:29;17.35;;;5.80;;
58338;SDS011;48278;52.704;6.536;2022-09-14T08:11:01;16.67;;;5.95;;
58338;SDS011;48278;52.704;6.536;2022-09-14T08:13:30;16.92;;;5.00;;
58338;SDS011;48278;52.704;6.536;2022-09-14T08:15:56;18.38;;;4.53;;
58338;SDS011;48278;52.704;6.536;2022-09-14T08:18:25;18.77;;;5.10;;
58338;SDS011;48278;52.704;6.536;2022-09-14T08:20:51;13.65;;;4.55;;
58338;SDS011;48278;52.704;6.536;2022-09-14T08:23:17;16.83;;;5.13;;
58338;SDS011;48278;52.704;6.536;2022-09-14T08:25:43;13.38;;;5.38;;
58338;SDS011;48278;52.704;6.536;2022-09-14T08:28:08;13.73;;;5.68;;
58338;SDS011;48278;52.704;6.536;2022-09-14T08:30:34;11.30;;;6.05;;
58338;SDS011;48278;52.704;6.536;2022-09-14T08:33:00;15.30;;;6.00;;
58338;SDS011;48278;52.704;6.536;2022-09-14T08:35:25;21.83;;;5.97;;
58338;SDS011;48278;52.704;6.536;2022-09-14T08:37:51;17.25;;;6.15;;
58338;SDS011;48278;52.704;6.536;2022-09-14T08:40:17;18.70;;;5.95;;
58338;SDS011;48278;52.704;6.536;2022-09-14T08:42:43;15.87;;;4.60;;
58338;SDS011;48278;52.704;6.536;2022-09-14T08:45:11;15.88;;;5.00;;
58338;SDS011;48278;52.704;6.536;2022-09-14T08:47:40;13.30;;;5.78;;
58338;SDS011;48278;52.704;6.536;2022-09-14T08:52:51;13.48;;;5.40;;
58338;SDS011;48278;52.704;6.536;2022-09-14T09:00:50;14.65;;;4.68;;
58338;SDS011;48278;52.704;6.536;2022-09-14T09:11:38;7.25;;;1.13;;
58338;SDS011;48278;52.704;6.536;2022-09-14T09:14:14;10.38;;;0.70;;
58338;SDS011;48278;52.704;6.536;2022-09-14T09:17:04;12.52;;;1.00;;
58338;SDS011;48278;52.704;6.536;2022-09-14T09:22:40;9.63;;;0.93;;
58338;SDS011;48278;52.704;6.536;2022-09-14T09:25:13;7.95;;;0.80;;
58338;SDS011;48278;52.704;6.536;2022-09-14T09:27:47;12.05;;;0.95;;
58338;SDS011;48278;52.704;6.536;2022-09-14T09:30:19;10.13;;;0.73;;
58338;SDS011;48278;52.704;6.536;2022-09-14T09:32:44;6.63;;;0.50;;
58338;SDS011;48278;52.704;6.536;2022-09-14T09:35:14;6.20;;;0.70;;
58338;SDS011;48278;52.704;6.536;2022-09-14T09:37:44;8.32;;;1.02;;
58338;SDS011;48278;52.704;6.536;2022-09-14T09:40:14;7.53;;;0.60;;
58338;SDS011;48278;52.704;6.536;2022-09-14T09:45:50;8.30;;;0.52;;
58338;SDS011;48278;52.704;6.536;2022-09-14T09:48:45;6.13;;;0.80;;
58338;SDS011;48278;52.704;6.536;2022-09-14T09:51:15;9.63;;;0.70;;
58338;SDS011;48278;52.704;6.536;2022-09-14T09:57:00;9.35;;;0.60;;
58338;SDS011;48278;52.704;6.536;2022-09-14T09:59:29;4.88;;;0.60;;
58338;SDS011;48278;52.704;6.536;2022-09-14T10:04:55;10.40;;;0.50;;
58338;SDS011;48278;52.704;6.536;2022-09-14T10:07:28;6.82;;;0.60;;
58338;SDS011;48278;52.704;6.536;2022-09-14T10:10:05;10.32;;;0.70;;
58338;SDS011;48278;52.704;6.536;2022-09-14T10:12:33;10.27;;;0.50;;
58338;SDS011;48278;52.704;6.536;2022-09-14T10:15:10;8.35;;;0.57;;
58338;SDS011;48278;52.704;6.536;2022-09-14T10:18:04;9.18;;;0.57;;
58338;SDS011;48278;52.704;6.536;2022-09-14T10:23:36;8.45;;;0.50;;
58338;SDS011;48278;52.704;6.536;2022-09-14T10:28:35;12.38;;;0.90;;
58338;SDS011;48278;52.704;6.536;2022-09-14T10:31:03;7.93;;;0.50;;
58338;SDS011;48278;52.704;6.536;2022-09-14T10:33:37;7.93;;;0.73;;
58338;SDS011;48278;52.704;6.536;2022-09-14T10:53:04;6.50;;;0.70;;
58338;SDS011;48278;52.704;6.536;2022-09-14T11:00:19;5.63;;;0.40;;
58338;SDS011;48278;52.704;6.536;2022-09-14T11:05:50;7.15;;;0.77;;
58338;SDS011;48278;52.704;6.536;2022-09-14T11:08:31;7.30;;;0.65;;
58338;SDS011;48278;52.704;6.536;2022-09-14T11:11:31;8.40;;;0.55;;
58338;SDS011;48278;52.704;6.536;2022-09-14T11:17:11;6.22;;;0.40;;
58338;SDS011;48278;52.704;6.536;2022-09-14T11:19:48;5.03;;;0.40;;
58338;SDS011;48278;52.704;6.536;2022-09-14T11:25:30;6.75;;;0.55;;
58338;SDS011;48278;52.704;6.536;2022-09-14T11:27:58;7.43;;;0.60;;
58338;SDS011;48278;52.704;6.536;2022-09-14T11:30:38;7.82;;;0.60;;
58338;SDS011;48278;52.704;6.536;2022-09-14T11:33:19;4.10;;;0.50;;
58338;SDS011;48278;52.704;6.536;2022-09-14T11:36:06;6.00;;;0.50;;
58338;SDS011;48278;52.704;6.536;2022-09-14T11:42:21;7.07;;;0.45;;
58338;SDS011;48278;52.704;6.536;2022-09-14T11:44:47;6.30;;;0.40;;
58338;SDS011;48278;52.704;6.536;2022-09-14T11:47:18;11.35;;;0.50;;
58338;SDS011;48278;52.704;6.536;2022-09-14T11:52:20;3.22;;;0.50;;
58338;SDS011;48278;52.704;6.536;2022-09-14T11:54:48;2.05;;;0.43;;
58338;SDS011;48278;52.704;6.536;2022-09-14T12:17:46;7.78;;;0.52;;
58338;SDS011;48278;52.704;6.536;2022-09-14T12:20:33;5.55;;;0.77;;
58338;SDS011;48278;52.704;6.536;2022-09-14T12:23:51;8.05;;;0.70;;
58338;SDS011;48278;52.704;6.536;2022-09-14T12:56:57;5.20;;;0.40;;
58338;SDS011;48278;52.704;6.536;2022-09-14T12:59:44;7.50;;;0.60;;
58338;SDS011;48278;52.704;6.536;2022-09-14T13:02:37;3.30;;;0.50;;
58338;SDS011;48278;52.704;6.536;2022-09-14T13:05:43;8.07;;;0.60;;
58338;SDS011;48278;52.704;6.536;2022-09-14T13:08:10;5.35;;;0.40;;
58338;SDS011;48278;52.704;6.536;2022-09-14T13:13:05;6.47;;;0.60;;
58338;SDS011;48278;52.704;6.536;2022-09-14T13:15:48;5.38;;;0.50;;
58338;SDS011;48278;52.704;6.536;2022-09-14T13:20:55;5.33;;;0.47;;
58338;SDS011;48278;52.704;6.536;2022-09-14T13:23:26;2.97;;;0.30;;
58338;SDS011;48278;52.704;6.536;2022-09-14T13:25:55;4.72;;;0.40;;
58338;SDS011;48278;52.704;6.536;2022-09-14T13:28:29;5.28;;;0.40;;
58338;SDS011;48278;52.704;6.536;2022-09-14T13:30:57;9.40;;;0.73;;
58338;SDS011;48278;52.704;6.536;2022-09-14T13:33:24;4.43;;;0.55;;
58338;SDS011;48278;52.704;6.536;2022-09-14T13:35:53;4.47;;;0.40;;
58338;SDS011;48278;52.704;6.536;2022-09-14T13:38:28;4.15;;;0.50;;
58338;SDS011;48278;52.704;6.536;2022-09-14T13:41:02;5.57;;;0.50;;
58338;SDS011;48278;52.704;6.536;2022-09-14T13:43:31;5.88;;;0.50;;
58338;SDS011;48278;52.704;6.536;2022-09-14T13:45:57;5.00;;;0.40;;
58338;SDS011;48278;52.704;6.536;2022-09-14T13:48:23;4.03;;;0.53;;
58338;SDS011;48278;52.704;6.536;2022-09-14T13:50:49;5.38;;;0.60;;
58338;SDS011;48278;52.704;6.536;2022-09-14T13:56:14;6.22;;;0.40;;
58338;SDS011;48278;52.704;6.536;2022-09-14T13:58:41;4.63;;;0.50;;
58338;SDS011;48278;52.704;6.536;2022-09-14T14:01:06;3.43;;;0.50;;
58338;SDS011;48278;52.704;6.536;2022-09-14T14:03:34;8.47;;;0.90;;
58338;SDS011;48278;52.704;6.536;2022-09-14T14:06:16;6.80;;;0.68;;
58338;SDS011;48278;52.704;6.536;2022-09-14T14:08:55;7.75;;;0.43;;
58338;SDS011;48278;52.704;6.536;2022-09-14T14:19:52;5.43;;;0.80;;
58338;SDS011;48278;52.704;6.536;2022-09-14T14:22:25;4.40;;;0.52;;
58338;SDS011;48278;52.704;6.536;2022-09-14T14:24:57;7.07;;;0.70;;
58338;SDS011;48278;52.704;6.536;2022-09-14T14:27:31;5.72;;;0.50;;
58338;SDS011;48278;52.704;6.536;2022-09-14T14:30:01;6.13;;;0.60;;
58338;SDS011;48278;52.704;6.536;2022-09-14T14:32:39;6.70;;;0.85;;
58338;SDS011;48278;52.704;6.536;2022-09-14T14:35:18;6.27;;;0.80;;
58338;SDS011;48278;52.704;6.536;2022-09-14T14:37:46;8.73;;;0.60;;
58338;SDS011;48278;52.704;6.536;2022-09-14T14:40:13;5.85;;;0.90;;
58338;SDS011;48278;52.704;6.536;2022-09-14T14:42:40;6.22;;;0.63;;
58338;SDS011;48278;52.704;6.536;2022-09-14T14:45:10;4.53;;;0.70;;
58338;SDS011;48278;52.704;6.536;2022-09-14T14:50:18;7.47;;;0.80;;
58338;SDS011;48278;52.704;6.536;2022-09-14T14:52:48;6.15;;;0.70;;
58338;SDS011;48278;52.704;6.536;2022-09-14T14:55:15;8.63;;;0.75;;
58338;SDS011;48278;52.704;6.536;2022-09-14T14:57:41;9.27;;;0.82;;
58338;SDS011;48278;52.704;6.536;2022-09-14T15:00:14;4.50;;;0.70;;
58338;SDS011;48278;52.704;6.536;2022-09-14T15:02:42;7.38;;;0.60;;
58338;SDS011;48278;52.704;6.536;2022-09-14T15:05:08;7.33;;;0.70;;
58338;SDS011;48278;52.704;6.536;2022-09-14T15:07:35;8.85;;;0.80;;
58338;SDS011;48278;52.704;6.536;2022-09-14T15:10:00;9.07;;;0.73;;
58338;SDS011;48278;52.704;6.536;2022-09-14T15:12:30;10.23;;;0.70;;
58338;SDS011;48278;52.704;6.536;2022-09-14T15:14:56;5.33;;;0.70;;
58338;SDS011;48278;52.704;6.536;2022-09-14T15:17:22;5.38;;;0.70;;
58338;SDS011;48278;52.704;6.536;2022-09-14T15:19:48;5.57;;;0.50;;
58338;SDS011;48278;52.704;6.536;2022-09-14T15:22:13;5.17;;;0.50;;
58338;SDS011;48278;52.704;6.536;2022-09-14T15:24:39;3.63;;;0.40;;
58338;SDS011;48278;52.704;6.536;2022-09-14T15:27:05;3.37;;;0.57;;
58338;SDS011;48278;52.704;6.536;2022-09-14T15:29:30;8.30;;;0.60;;
58338;SDS011;48278;52.704;6.536;2022-09-14T15:31:56;7.57;;;0.80;;
58338;SDS011;48278;52.704;6.536;2022-09-14T15:34:22;5.00;;;0.50;;
58338;SDS011;48278;52.704;6.536;2022-09-14T15:36:49;6.23;;;0.50;;
58338;SDS011;48278;52.704;6.536;2022-09-14T15:39:18;4.05;;;0.50;;
58338;SDS011;48278;52.704;6.536;2022-09-14T15:41:45;5.75;;;0.60;;
58338;SDS011;48278;52.704;6.536;2022-09-14T15:44:11;11.52;;;0.95;;
58338;SDS011;48278;52.704;6.536;2022-09-14T15:46:38;6.50;;;0.50;;
58338;SDS011;48278;52.704;6.536;2022-09-14T15:49:05;8.13;;;0.70;;
58338;SDS011;48278;52.704;6.536;2022-09-14T15:51:33;6.32;;;0.60;;
58338;SDS011;48278;52.704;6.536;2022-09-14T15:53:59;7.67;;;0.50;;
58338;SDS011;48278;52.704;6.536;2022-09-14T15:58:51;7.27;;;0.60;;
58338;SDS011;48278;52.704;6.536;2022-09-14T16:01:17;8.47;;;0.50;;
58338;SDS011;48278;52.704;6.536;2022-09-14T16:03:43;4.72;;;0.70;;
58338;SDS011;48278;52.704;6.536;2022-09-14T16:06:10;6.30;;;0.65;;
58338;SDS011;48278;52.704;6.536;2022-09-14T16:08:38;4.45;;;0.60;;
58338;SDS011;48278;52.704;6.536;2022-09-14T16:11:05;6.43;;;0.50;;
58338;SDS011;48278;52.704;6.536;2022-09-14T16:13:32;5.18;;;0.50;;
58338;SDS011;48278;52.704;6.536;2022-09-14T16:16:05;10.52;;;0.68;;
58338;SDS011;48278;52.704;6.536;2022-09-14T16:18:34;9.95;;;0.60;;
58338;SDS011;48278;52.704;6.536;2022-09-14T16:21:13;3.95;;;0.60;;
58338;SDS011;48278;52.704;6.536;2022-09-14T16:23:45;13.43;;;0.70;;
58338;SDS011;48278;52.704;6.536;2022-09-14T16:26:14;7.43;;;0.63;;
58338;SDS011;48278;52.704;6.536;2022-09-14T16:28:42;6.68;;;0.80;;
58338;SDS011;48278;52.704;6.536;2022-09-14T16:31:13;6.30;;;0.73;;
58338;SDS011;48278;52.704;6.536;2022-09-14T16:33:44;8.68;;;0.70;;
58338;SDS011;48278;52.704;6.536;2022-09-14T16:36:12;10.43;;;0.63;;
58338;SDS011;48278;52.704;6.536;2022-09-14T16:38:39;12.88;;;0.93;;
58338;SDS011;48278;52.704;6.536;2022-09-14T16:41:06;7.80;;;0.60;;
58338;SDS011;48278;52.704;6.536;2022-09-14T16:43:32;7.90;;;0.75;;
58338;SDS011;48278;52.704;6.536;2022-09-14T16:46:12;6.63;;;0.95;;
58338;SDS011;48278;52.704;6.536;2022-09-14T16:48:39;8.18;;;0.95;;
58338;SDS011;48278;52.704;6.536;2022-09-14T16:51:07;9.02;;;0.90;;
58338;SDS011;48278;52.704;6.536;2022-09-14T16:53:34;10.13;;;0.80;;
58338;SDS011;48278;52.704;6.536;2022-09-14T16:56:21;12.27;;;0.90;;
58338;SDS011;48278;52.704;6.536;2022-09-14T16:58:49;6.85;;;0.98;;
58338;SDS011;48278;52.704;6.536;2022-09-14T17:01:18;11.27;;;1.02;;
58338;SDS011;48278;52.704;6.536;2022-09-14T17:03:53;8.77;;;0.52;;
58338;SDS011;48278;52.704;6.536;2022-09-14T17:06:21;8.63;;;0.80;;
58338;SDS011;48278;52.704;6.536;2022-09-14T17:08:51;9.55;;;1.00;;
58338;SDS011;48278;52.704;6.536;2022-09-14T17:11:19;10.88;;;1.23;;
58338;SDS011;48278;52.704;6.536;2022-09-14T17:13:45;6.47;;;0.90;;
58338;SDS011;48278;52.704;6.536;2022-09-14T17:16:13;11.95;;;0.70;;
58338;SDS011;48278;52.704;6.536;2022-09-14T17:18:41;8.35;;;0.95;;
58338;SDS011;48278;52.704;6.536;2022-09-14T17:21:15;8.02;;;0.77;;
58338;SDS011;48278;52.704;6.536;2022-09-14T17:23:47;8.52;;;0.80;;
58338;SDS011;48278;52.704;6.536;2022-09-14T17:26:13;8.03;;;0.70;;
58338;SDS011;48278;52.704;6.536;2022-09-14T17:28:42;11.60;;;1.15;;
58338;SDS011;48278;52.704;6.536;2022-09-14T17:31:13;11.02;;;0.98;;
58338;SDS011;48278;52.704;6.536;2022-09-14T17:33:40;9.18;;;1.13;;
58338;SDS011;48278;52.704;6.536;2022-09-14T17:36:06;8.73;;;0.83;;
58338;SDS011;48278;52.704;6.536;2022-09-14T17:38:33;8.68;;;1.17;;
58338;SDS011;48278;52.704;6.536;2022-09-14T17:41:05;8.80;;;0.90;;
58338;SDS011;48278;52.704;6.536;2022-09-14T17:43:33;6.97;;;0.95;;
58338;SDS011;48278;52.704;6.536;2022-09-14T17:46:00;5.55;;;0.80;;
58338;SDS011;48278;52.704;6.536;2022-09-14T17:48:28;7.05;;;0.90;;
58338;SDS011;48278;52.704;6.536;2022-09-14T17:51:07;10.68;;;1.23;;
58338;SDS011;48278;52.704;6.536;2022-09-14T17:53:38;8.05;;;1.00;;
58338;SDS011;48278;52.704;6.536;2022-09-14T17:56:06;7.72;;;1.08;;
58338;SDS011;48278;52.704;6.536;2022-09-14T17:58:33;9.45;;;1.10;;
58338;SDS011;48278;52.704;6.536;2022-09-14T18:01:12;11.15;;;1.13;;
58338;SDS011;48278;52.704;6.536;2022-09-14T18:03:40;8.52;;;1.20;;
58338;SDS011;48278;52.704;6.536;2022-09-14T18:06:10;5.85;;;0.75;;
58338;SDS011;48278;52.704;6.536;2022-09-14T18:08:38;7.97;;;0.60;;
58338;SDS011;48278;52.704;6.536;2022-09-14T18:11:06;6.55;;;0.80;;